Aeroporto :
LOGIN :

Iscrizione | Disclaimer

   EN    FR    IT 

 










Sommario :    VFR   VFR Marginale   IFR   IFR Intensivo   IFR Molto Intensivo
Visibilità : 
Base nubi : 
>= 8 km
>= 3000ft
5 / 8 km
1000 / 3000 ft
1500m / 5 km
500 / 1000 ft
800 / 1500m
200 / 500 ft
< 800m
< 200 ft
Simboli :   Temporali  Nebbia  Neve Forte  Precipitazioni Forti  Vento > 20 kt
SIGMETs :   Varie  Temporali  Ghiacco  Turbolenza  Onda orograficha  Ceneri Vulcaniche







- Altitudine del aeroporto : 100 ft


EBDT - Schaffen

ULTIMO METAR :
  • 190025Z AUTO VRB02KT 9999 FEW170/// 19/15 Q1009 BLU

METARs OBSOLETI :
  • 182355Z AUTO VRB02KT 9999 NCD 20/15 Q1009 BLU
  • 182325Z AUTO VRB01KT 9999 NCD 20/15 Q1010 BLU
  • 182255Z AUTO 16004KT 9999 NCD 21/15 Q1010 BLU
  • 182225Z AUTO 17005KT 9999 NCD 20/15 Q1010 BLU
  • 182155Z AUTO VRB02KT 9999 FEW190/// 22/14 Q1010 BLU
  • 182125Z AUTO VRB02KT 9999 FEW120/// BKN190/// 23/14 Q1011 BLU

TAF TAF EBDT
Valido dal 18 a 19 ore il 19 a 07 ore UTC


181541Z 1819/1907 05003KT 9999 SCT080 BKN250
BECMG 1820/1822 15002KT FEW080 SCT250
BECMG 1904/1906 18005KT FEW050 SCT080
Nessun NOTAM noto per questo aeroporto.
1 SIGMET conosciuto per la FIR Brussels (EBBU) :
 
Temporali affogati
EBBU SIGMET 01 VALID 182320/190220 EBBR
EBBU BRUSSELS FIR EMBD TS OBS WI N5130 E00200 - N5107 E00200 - N5042 E00255 - N5126 E00255 - N5130 E00200 TOP FL320 MOV NE 30KT NC=



MetMap, La meteo Aeronautica in un colpo d'occhio ! - Copyright ORBIFLY Dicembre 2007 - Disclaimer

ORBIFLY MET'MAP TEAM :

Programmazione e sviluppo : Alexandra Zaïnal
Concezione e sviluppo : Baudouin d'Aumeries
Co-Programmazione e sviluppo : Marc-Olivier Méhu
Supporto tecnico e logistico : Manuel Goepfert
Aiuto per la traduzione : Arnaldo La Scala

Contatto : metmap@orbifly.com




FONTI E CREDITI :

   NOAA